Terminal Aerodrome Forecast
Issued by NWS Charleston, WV

Current Version | Previous Version | Text Only | Print | Product List | Glossary Off
Versions: 1 2 3 4 5 6 7 8 9 10 11 12 13 14 15 16 17 18 19 20 21 22 23 24 25 26 27 28 29 30 31

000
FTUS41 KRLX 191232 AAA
TAFHTS
TAF AMD
KHTS 191232Z 1913/2012 00000KT 6SM BR OVC100
     FM191305 VRB03KT P6SM BKN070
     FM200900 00000KT 4SM BR SCT070=

USA.gov is the U.S. government's official web portal to all federal, state and local government web resources and services.